<?xml version="1.0" encoding="UTF-8" standalone="no" ?>
<gpx xmlns="http://www.topografix.com/GPX/1/1" xmlns:xsi="http://www.w3.org/2001/XMLSchema-instance" xsi:schemaLocation="http://www.topografix.com/GPX/1/1 http://www.topografix.com/GPX/1/1/gpx.xsd" version="1.1" creator="VisuGPX - https://www.visugpx.com">
  <metadata>
    <name>RSPFY-tour-du-bois-de-Meridon</name>
    <desc><![CDATA[Boucle de marche nordique dans le bois de Méridon, vues sur châteaux de la Madeleine, Breteuil, Méridon et fontaine St Paul.]]></desc>
  </metadata>
  <trk>
    <name><![CDATA[2020-05-21 09:12]]></name>
    <desc><![CDATA[<p>Heure de départ: 09:13 21 mai 2020<br/>Heure d'arrivée: 11:59 21 mai 2020<br/>Distance: 12,7 km (02:46)<br/>Temps déplacement: 02:21<br/>Vitesse moyenne: 4,6 km/h<br/>Vitesse moyenne mouv.: 5,39 km/h<br/>Vitesse Max.: 8,69 km/h<br/>Altitude minimale: 112 m<br/>Altitude maximale: 197 m<br/>Vitesse de montée: 308,2 m/h<br/>Vitesse de descente: -344,2 m/h<br/>Gain d'altitude: 449 m<br/>Perte d'altitude: -443 m<br/>Temps de montée: 01:27<br/>Temps de descente: 01:17<br/></p><hr align="center" width="480" style="height: 2px; width: 517px"/>]]></desc>
    <trkseg>
      <trkpt lat="48.69459" lon="2.03715">
        <ele>164</ele>
        <time>2020-05-21T07:13:02Z</time>
      </trkpt>
      <trkpt lat="48.69445" lon="2.03733">
        <ele>164</ele>
        <time>2020-05-21T07:13:48Z</time>
      </trkpt>
      <trkpt lat="48.69447" lon="2.03761">
        <ele>166</ele>
        <time>2020-05-21T07:14:04Z</time>
      </trkpt>
      <trkpt lat="48.69446" lon="2.03789">
        <ele>166</ele>
        <time>2020-05-21T07:14:32Z</time>
      </trkpt>
      <trkpt lat="48.69434" lon="2.03811">
        <ele>166</ele>
        <time>2020-05-21T07:14:49Z</time>
      </trkpt>
      <trkpt lat="48.69426" lon="2.03836">
        <ele>166</ele>
        <time>2020-05-21T07:15:03Z</time>
      </trkpt>
      <trkpt lat="48.69419" lon="2.03862">
        <ele>166</ele>
        <time>2020-05-21T07:15:16Z</time>
      </trkpt>
      <trkpt lat="48.69416" lon="2.03889">
        <ele>162</ele>
        <time>2020-05-21T07:15:26Z</time>
      </trkpt>
      <trkpt lat="48.69418" lon="2.03918">
        <ele>164</ele>
        <time>2020-05-21T07:15:37Z</time>
      </trkpt>
      <trkpt lat="48.69422" lon="2.03948">
        <ele>166</ele>
        <time>2020-05-21T07:15:49Z</time>
      </trkpt>
      <trkpt lat="48.69423" lon="2.03977">
        <ele>166</ele>
        <time>2020-05-21T07:16:05Z</time>
      </trkpt>
      <trkpt lat="48.69424" lon="2.04004">
        <ele>165</ele>
        <time>2020-05-21T07:16:20Z</time>
      </trkpt>
      <trkpt lat="48.69426" lon="2.04032">
        <ele>166</ele>
        <time>2020-05-21T07:16:31Z</time>
      </trkpt>
      <trkpt lat="48.69425" lon="2.04061">
        <ele>166</ele>
        <time>2020-05-21T07:16:46Z</time>
      </trkpt>
      <trkpt lat="48.69427" lon="2.04089">
        <ele>165</ele>
        <time>2020-05-21T07:16:58Z</time>
      </trkpt>
      <trkpt lat="48.6943" lon="2.04118">
        <ele>167</ele>
        <time>2020-05-21T07:17:11Z</time>
      </trkpt>
      <trkpt lat="48.69432" lon="2.04146">
        <ele>166</ele>
        <time>2020-05-21T07:17:25Z</time>
      </trkpt>
      <trkpt lat="48.69433" lon="2.04174">
        <ele>166</ele>
        <time>2020-05-21T07:17:40Z</time>
      </trkpt>
      <trkpt lat="48.69436" lon="2.04201">
        <ele>167</ele>
        <time>2020-05-21T07:17:55Z</time>
      </trkpt>
      <trkpt lat="48.69436" lon="2.04229">
        <ele>167</ele>
        <time>2020-05-21T07:18:09Z</time>
      </trkpt>
      <trkpt lat="48.69435" lon="2.04256">
        <ele>167</ele>
        <time>2020-05-21T07:18:21Z</time>
      </trkpt>
      <trkpt lat="48.69433" lon="2.04285">
        <ele>168</ele>
        <time>2020-05-21T07:18:36Z</time>
      </trkpt>
      <trkpt lat="48.6943" lon="2.04313">
        <ele>168</ele>
        <time>2020-05-21T07:18:51Z</time>
      </trkpt>
      <trkpt lat="48.69431" lon="2.04343">
        <ele>168</ele>
        <time>2020-05-21T07:19:05Z</time>
      </trkpt>
      <trkpt lat="48.69431" lon="2.04372">
        <ele>170</ele>
        <time>2020-05-21T07:19:18Z</time>
      </trkpt>
      <trkpt lat="48.69434" lon="2.04399">
        <ele>170</ele>
        <time>2020-05-21T07:19:31Z</time>
      </trkpt>
      <trkpt lat="48.69433" lon="2.04428">
        <ele>170</ele>
        <time>2020-05-21T07:19:44Z</time>
      </trkpt>
      <trkpt lat="48.6943" lon="2.04457">
        <ele>170</ele>
        <time>2020-05-21T07:19:55Z</time>
      </trkpt>
      <trkpt lat="48.69426" lon="2.04483">
        <ele>170</ele>
        <time>2020-05-21T07:20:10Z</time>
      </trkpt>
      <trkpt lat="48.69427" lon="2.04512">
        <ele>170</ele>
        <time>2020-05-21T07:20:24Z</time>
      </trkpt>
      <trkpt lat="48.69432" lon="2.04539">
        <ele>171</ele>
        <time>2020-05-21T07:20:36Z</time>
      </trkpt>
      <trkpt lat="48.69433" lon="2.04567">
        <ele>172</ele>
        <time>2020-05-21T07:20:52Z</time>
      </trkpt>
      <trkpt lat="48.69421" lon="2.04588">
        <ele>172</ele>
        <time>2020-05-21T07:21:06Z</time>
      </trkpt>
      <trkpt lat="48.69414" lon="2.04613">
        <ele>169</ele>
        <time>2020-05-21T07:21:18Z</time>
      </trkpt>
      <trkpt lat="48.6941" lon="2.0464">
        <ele>170</ele>
        <time>2020-05-21T07:21:28Z</time>
      </trkpt>
      <trkpt lat="48.69402" lon="2.04664">
        <ele>170</ele>
        <time>2020-05-21T07:21:40Z</time>
      </trkpt>
      <trkpt lat="48.69401" lon="2.04693">
        <ele>170</ele>
        <time>2020-05-21T07:21:51Z</time>
      </trkpt>
      <trkpt lat="48.69397" lon="2.0472">
        <ele>170</ele>
        <time>2020-05-21T07:22:04Z</time>
      </trkpt>
      <trkpt lat="48.69396" lon="2.04749">
        <ele>171</ele>
        <time>2020-05-21T07:22:20Z</time>
      </trkpt>
      <trkpt lat="48.69391" lon="2.04776">
        <ele>171</ele>
        <time>2020-05-21T07:22:33Z</time>
      </trkpt>
      <trkpt lat="48.69389" lon="2.04804">
        <ele>171</ele>
        <time>2020-05-21T07:22:46Z</time>
      </trkpt>
      <trkpt lat="48.69387" lon="2.04832">
        <ele>171</ele>
        <time>2020-05-21T07:22:58Z</time>
      </trkpt>
      <trkpt lat="48.69389" lon="2.0486">
        <ele>170</ele>
        <time>2020-05-21T07:23:09Z</time>
      </trkpt>
      <trkpt lat="48.69391" lon="2.04887">
        <ele>169</ele>
        <time>2020-05-21T07:23:19Z</time>
      </trkpt>
      <trkpt lat="48.69395" lon="2.04914">
        <ele>170</ele>
        <time>2020-05-21T07:23:31Z</time>
      </trkpt>
      <trkpt lat="48.69396" lon="2.04942">
        <ele>169</ele>
        <time>2020-05-21T07:23:47Z</time>
      </trkpt>
      <trkpt lat="48.69402" lon="2.04968">
        <ele>169</ele>
        <time>2020-05-21T07:23:58Z</time>
      </trkpt>
      <trkpt lat="48.69404" lon="2.04996">
        <ele>171</ele>
        <time>2020-05-21T07:24:14Z</time>
      </trkpt>
      <trkpt lat="48.6941" lon="2.05024">
        <ele>170</ele>
        <time>2020-05-21T07:24:28Z</time>
      </trkpt>
      <trkpt lat="48.69417" lon="2.05051">
        <ele>172</ele>
        <time>2020-05-21T07:24:42Z</time>
      </trkpt>
      <trkpt lat="48.69428" lon="2.05074">
        <ele>171</ele>
        <time>2020-05-21T07:24:52Z</time>
      </trkpt>
      <trkpt lat="48.69433" lon="2.05102">
        <ele>171</ele>
        <time>2020-05-21T07:25:05Z</time>
      </trkpt>
      <trkpt lat="48.69443" lon="2.05125">
        <ele>171</ele>
        <time>2020-05-21T07:25:16Z</time>
      </trkpt>
      <trkpt lat="48.6945" lon="2.05151">
        <ele>170</ele>
        <time>2020-05-21T07:25:29Z</time>
      </trkpt>
      <trkpt lat="48.69461" lon="2.05176">
        <ele>169</ele>
        <time>2020-05-21T07:25:40Z</time>
      </trkpt>
      <trkpt lat="48.69471" lon="2.05199">
        <ele>169</ele>
        <time>2020-05-21T07:25:53Z</time>
      </trkpt>
      <trkpt lat="48.6948" lon="2.05223">
        <ele>169</ele>
        <time>2020-05-21T07:26:12Z</time>
      </trkpt>
      <trkpt lat="48.69472" lon="2.05248">
        <ele>169</ele>
        <time>2020-05-21T07:26:26Z</time>
      </trkpt>
      <trkpt lat="48.69463" lon="2.05272">
        <ele>166</ele>
        <time>2020-05-21T07:26:38Z</time>
      </trkpt>
      <trkpt lat="48.69454" lon="2.05296">
        <ele>166</ele>
        <time>2020-05-21T07:26:52Z</time>
      </trkpt>
      <trkpt lat="48.69438" lon="2.0531">
        <ele>165</ele>
        <time>2020-05-21T07:27:05Z</time>
      </trkpt>
      <trkpt lat="48.6942" lon="2.05321">
        <ele>164</ele>
        <time>2020-05-21T07:27:20Z</time>
      </trkpt>
      <trkpt lat="48.69402" lon="2.05316">
        <ele>163</ele>
        <time>2020-05-21T07:27:40Z</time>
      </trkpt>
      <trkpt lat="48.69388" lon="2.05297">
        <ele>163</ele>
        <time>2020-05-21T07:27:57Z</time>
      </trkpt>
      <trkpt lat="48.69375" lon="2.05276">
        <ele>164</ele>
        <time>2020-05-21T07:28:11Z</time>
      </trkpt>
      <trkpt lat="48.69359" lon="2.05261">
        <ele>164</ele>
        <time>2020-05-21T07:28:25Z</time>
      </trkpt>
      <trkpt lat="48.69345" lon="2.05242">
        <ele>164</ele>
        <time>2020-05-21T07:28:37Z</time>
      </trkpt>
      <trkpt lat="48.6933" lon="2.05225">
        <ele>164</ele>
        <time>2020-05-21T07:28:51Z</time>
      </trkpt>
      <trkpt lat="48.69313" lon="2.05213">
        <ele>164</ele>
        <time>2020-05-21T07:29:03Z</time>
      </trkpt>
      <trkpt lat="48.69297" lon="2.052">
        <ele>164</ele>
        <time>2020-05-21T07:29:16Z</time>
      </trkpt>
      <trkpt lat="48.69278" lon="2.05193">
        <ele>164</ele>
        <time>2020-05-21T07:29:27Z</time>
      </trkpt>
      <trkpt lat="48.6926" lon="2.05185">
        <ele>164</ele>
        <time>2020-05-21T07:29:39Z</time>
      </trkpt>
      <trkpt lat="48.69242" lon="2.05175">
        <ele>164</ele>
        <time>2020-05-21T07:29:52Z</time>
      </trkpt>
      <trkpt lat="48.69225" lon="2.05165">
        <ele>164</ele>
        <time>2020-05-21T07:30:07Z</time>
      </trkpt>
      <trkpt lat="48.69207" lon="2.0516">
        <ele>164</ele>
        <time>2020-05-21T07:30:17Z</time>
      </trkpt>
      <trkpt lat="48.6919" lon="2.05153">
        <ele>164</ele>
        <time>2020-05-21T07:30:31Z</time>
      </trkpt>
      <trkpt lat="48.69172" lon="2.05149">
        <ele>164</ele>
        <time>2020-05-21T07:30:43Z</time>
      </trkpt>
      <trkpt lat="48.69157" lon="2.05166">
        <ele>163</ele>
        <time>2020-05-21T07:30:54Z</time>
      </trkpt>
      <trkpt lat="48.69149" lon="2.05191">
        <ele>164</ele>
        <time>2020-05-21T07:31:08Z</time>
      </trkpt>
      <trkpt lat="48.69142" lon="2.05219">
        <ele>164</ele>
        <time>2020-05-21T07:31:22Z</time>
      </trkpt>
      <trkpt lat="48.69142" lon="2.05247">
        <ele>164</ele>
        <time>2020-05-21T07:31:37Z</time>
      </trkpt>
      <trkpt lat="48.69143" lon="2.05274">
        <ele>166</ele>
        <time>2020-05-21T07:31:52Z</time>
      </trkpt>
      <trkpt lat="48.69146" lon="2.05302">
        <ele>167</ele>
        <time>2020-05-21T07:32:06Z</time>
      </trkpt>
      <trkpt lat="48.69149" lon="2.0533">
        <ele>167</ele>
        <time>2020-05-21T07:32:19Z</time>
      </trkpt>
      <trkpt lat="48.6915" lon="2.05358">
        <ele>169</ele>
        <time>2020-05-21T07:32:34Z</time>
      </trkpt>
      <trkpt lat="48.69151" lon="2.05386">
        <ele>170</ele>
        <time>2020-05-21T07:33:08Z</time>
      </trkpt>
      <trkpt lat="48.69132" lon="2.05385">
        <ele>170</ele>
        <time>2020-05-21T07:33:32Z</time>
      </trkpt>
      <trkpt lat="48.69113" lon="2.05379">
        <ele>170</ele>
        <time>2020-05-21T07:33:49Z</time>
      </trkpt>
      <trkpt lat="48.69095" lon="2.05377">
        <ele>170</ele>
        <time>2020-05-21T07:34:02Z</time>
      </trkpt>
      <trkpt lat="48.69076" lon="2.05379">
        <ele>171</ele>
        <time>2020-05-21T07:34:19Z</time>
      </trkpt>
      <trkpt lat="48.69058" lon="2.05375">
        <ele>171</ele>
        <time>2020-05-21T07:34:34Z</time>
      </trkpt>
      <trkpt lat="48.69039" lon="2.05373">
        <ele>170</ele>
        <time>2020-05-21T07:34:50Z</time>
      </trkpt>
      <trkpt lat="48.69022" lon="2.05363">
        <ele>170</ele>
        <time>2020-05-21T07:35:05Z</time>
      </trkpt>
      <trkpt lat="48.69005" lon="2.05349">
        <ele>170</ele>
        <time>2020-05-21T07:35:17Z</time>
      </trkpt>
      <trkpt lat="48.68988" lon="2.05338">
        <ele>170</ele>
        <time>2020-05-21T07:35:28Z</time>
      </trkpt>
      <trkpt lat="48.68968" lon="2.05339">
        <ele>170</ele>
        <time>2020-05-21T07:35:39Z</time>
      </trkpt>
      <trkpt lat="48.68949" lon="2.05343">
        <ele>170</ele>
        <time>2020-05-21T07:35:53Z</time>
      </trkpt>
      <trkpt lat="48.68931" lon="2.05346">
        <ele>170</ele>
        <time>2020-05-21T07:36:21Z</time>
      </trkpt>
      <trkpt lat="48.68913" lon="2.05332">
        <ele>171</ele>
        <time>2020-05-21T07:36:37Z</time>
      </trkpt>
      <trkpt lat="48.68899" lon="2.05314">
        <ele>169</ele>
        <time>2020-05-21T07:36:53Z</time>
      </trkpt>
      <trkpt lat="48.68884" lon="2.05297">
        <ele>168</ele>
        <time>2020-05-21T07:37:05Z</time>
      </trkpt>
      <trkpt lat="48.68868" lon="2.05282">
        <ele>168</ele>
        <time>2020-05-21T07:37:33Z</time>
      </trkpt>
      <trkpt lat="48.68851" lon="2.0527">
        <ele>168</ele>
        <time>2020-05-21T07:37:49Z</time>
      </trkpt>
      <trkpt lat="48.68836" lon="2.05251">
        <ele>167</ele>
        <time>2020-05-21T07:38:01Z</time>
      </trkpt>
      <trkpt lat="48.68819" lon="2.05237">
        <ele>165</ele>
        <time>2020-05-21T07:38:13Z</time>
      </trkpt>
      <trkpt lat="48.688" lon="2.05236">
        <ele>164</ele>
        <time>2020-05-21T07:38:27Z</time>
      </trkpt>
      <trkpt lat="48.68781" lon="2.05238">
        <ele>163</ele>
        <time>2020-05-21T07:38:40Z</time>
      </trkpt>
      <trkpt lat="48.68765" lon="2.05251">
        <ele>163</ele>
        <time>2020-05-21T07:38:59Z</time>
      </trkpt>
      <trkpt lat="48.68751" lon="2.05268">
        <ele>163</ele>
        <time>2020-05-21T07:39:12Z</time>
      </trkpt>
      <trkpt lat="48.68735" lon="2.0528">
        <ele>159</ele>
        <time>2020-05-21T07:39:24Z</time>
      </trkpt>
      <trkpt lat="48.68722" lon="2.053">
        <ele>158</ele>
        <time>2020-05-21T07:39:38Z</time>
      </trkpt>
      <trkpt lat="48.68719" lon="2.05328">
        <ele>158</ele>
        <time>2020-05-21T07:39:49Z</time>
      </trkpt>
      <trkpt lat="48.68704" lon="2.05344">
        <ele>155</ele>
        <time>2020-05-21T07:40:03Z</time>
      </trkpt>
      <trkpt lat="48.68693" lon="2.05366">
        <ele>154</ele>
        <time>2020-05-21T07:40:15Z</time>
      </trkpt>
      <trkpt lat="48.68693" lon="2.05396">
        <ele>154</ele>
        <time>2020-05-21T07:40:26Z</time>
      </trkpt>
      <trkpt lat="48.6869" lon="2.05423">
        <ele>152</ele>
        <time>2020-05-21T07:40:41Z</time>
      </trkpt>
      <trkpt lat="48.68683" lon="2.0545">
        <ele>153</ele>
        <time>2020-05-21T07:40:58Z</time>
      </trkpt>
      <trkpt lat="48.68678" lon="2.05477">
        <ele>153</ele>
        <time>2020-05-21T07:41:14Z</time>
      </trkpt>
      <trkpt lat="48.6867" lon="2.05502">
        <ele>151</ele>
        <time>2020-05-21T07:41:30Z</time>
      </trkpt>
      <trkpt lat="48.68656" lon="2.05521">
        <ele>151</ele>
        <time>2020-05-21T07:41:49Z</time>
      </trkpt>
      <trkpt lat="48.68647" lon="2.05545">
        <ele>151</ele>
        <time>2020-05-21T07:42:05Z</time>
      </trkpt>
      <trkpt lat="48.68641" lon="2.05573">
        <ele>151</ele>
        <time>2020-05-21T07:42:20Z</time>
      </trkpt>
      <trkpt lat="48.68641" lon="2.05602">
        <ele>150</ele>
        <time>2020-05-21T07:42:36Z</time>
      </trkpt>
      <trkpt lat="48.68641" lon="2.0563">
        <ele>150</ele>
        <time>2020-05-21T07:42:47Z</time>
      </trkpt>
      <trkpt lat="48.68644" lon="2.05657">
        <ele>148</ele>
        <time>2020-05-21T07:42:58Z</time>
      </trkpt>
      <trkpt lat="48.68646" lon="2.05685">
        <ele>148</ele>
        <time>2020-05-21T07:43:12Z</time>
      </trkpt>
      <trkpt lat="48.68648" lon="2.05713">
        <ele>148</ele>
        <time>2020-05-21T07:43:25Z</time>
      </trkpt>
      <trkpt lat="48.68647" lon="2.05742">
        <ele>147</ele>
        <time>2020-05-21T07:43:39Z</time>
      </trkpt>
      <trkpt lat="48.68649" lon="2.05769">
        <ele>146</ele>
        <time>2020-05-21T07:43:54Z</time>
      </trkpt>
      <trkpt lat="48.6865" lon="2.05798">
        <ele>146</ele>
        <time>2020-05-21T07:44:07Z</time>
      </trkpt>
      <trkpt lat="48.68648" lon="2.05827">
        <ele>144</ele>
        <time>2020-05-21T07:44:19Z</time>
      </trkpt>
      <trkpt lat="48.68646" lon="2.05855">
        <ele>143</ele>
        <time>2020-05-21T07:44:30Z</time>
      </trkpt>
      <trkpt lat="48.6864" lon="2.05881">
        <ele>143</ele>
        <time>2020-05-21T07:44:45Z</time>
      </trkpt>
      <trkpt lat="48.68643" lon="2.0591">
        <ele>140</ele>
        <time>2020-05-21T07:45:03Z</time>
      </trkpt>
      <trkpt lat="48.68647" lon="2.05939">
        <ele>138</ele>
        <time>2020-05-21T07:45:21Z</time>
      </trkpt>
      <trkpt lat="48.68653" lon="2.05965">
        <ele>137</ele>
        <time>2020-05-21T07:45:33Z</time>
      </trkpt>
      <trkpt lat="48.68659" lon="2.05992">
        <ele>132</ele>
        <time>2020-05-21T07:45:46Z</time>
      </trkpt>
      <trkpt lat="48.68665" lon="2.06019">
        <ele>133</ele>
        <time>2020-05-21T07:46:02Z</time>
      </trkpt>
      <trkpt lat="48.68669" lon="2.06046">
        <ele>126</ele>
        <time>2020-05-21T07:46:18Z</time>
      </trkpt>
      <trkpt lat="48.68675" lon="2.06072">
        <ele>126</ele>
        <time>2020-05-21T07:46:30Z</time>
      </trkpt>
      <trkpt lat="48.68681" lon="2.061">
        <ele>125</ele>
        <time>2020-05-21T07:46:42Z</time>
      </trkpt>
      <trkpt lat="48.68685" lon="2.06128">
        <ele>125</ele>
        <time>2020-05-21T07:46:58Z</time>
      </trkpt>
      <trkpt lat="48.68673" lon="2.0615">
        <ele>126</ele>
        <time>2020-05-21T07:47:13Z</time>
      </trkpt>
      <trkpt lat="48.68655" lon="2.0616">
        <ele>131</ele>
        <time>2020-05-21T07:47:36Z</time>
      </trkpt>
      <trkpt lat="48.6866" lon="2.06186">
        <ele>130</ele>
        <time>2020-05-21T07:52:19Z</time>
      </trkpt>
      <trkpt lat="48.68677" lon="2.06176">
        <ele>125</ele>
        <time>2020-05-21T07:52:40Z</time>
      </trkpt>
      <trkpt lat="48.68696" lon="2.0617">
        <ele>123</ele>
        <time>2020-05-21T07:52:58Z</time>
      </trkpt>
      <trkpt lat="48.68716" lon="2.06164">
        <ele>123</ele>
        <time>2020-05-21T07:53:10Z</time>
      </trkpt>
      <trkpt lat="48.68733" lon="2.06151">
        <ele>122</ele>
        <time>2020-05-21T07:53:26Z</time>
      </trkpt>
      <trkpt lat="48.68751" lon="2.06147">
        <ele>121</ele>
        <time>2020-05-21T07:53:37Z</time>
      </trkpt>
      <trkpt lat="48.68768" lon="2.06138">
        <ele>122</ele>
        <time>2020-05-21T07:53:52Z</time>
      </trkpt>
      <trkpt lat="48.68788" lon="2.06136">
        <ele>122</ele>
        <time>2020-05-21T07:54:03Z</time>
      </trkpt>
      <trkpt lat="48.68806" lon="2.06131">
        <ele>123</ele>
        <time>2020-05-21T07:54:15Z</time>
      </trkpt>
      <trkpt lat="48.68826" lon="2.0613">
        <ele>123</ele>
        <time>2020-05-21T07:54:25Z</time>
      </trkpt>
      <trkpt lat="48.68843" lon="2.06123">
        <ele>125</ele>
        <time>2020-05-21T07:54:40Z</time>
      </trkpt>
      <trkpt lat="48.68863" lon="2.06118">
        <ele>126</ele>
        <time>2020-05-21T07:54:51Z</time>
      </trkpt>
      <trkpt lat="48.68881" lon="2.06117">
        <ele>126</ele>
        <time>2020-05-21T07:54:58Z</time>
      </trkpt>
      <trkpt lat="48.68898" lon="2.0611">
        <ele>127</ele>
        <time>2020-05-21T07:55:12Z</time>
      </trkpt>
      <trkpt lat="48.68917" lon="2.06107">
        <ele>130</ele>
        <time>2020-05-21T07:55:31Z</time>
      </trkpt>
      <trkpt lat="48.68935" lon="2.06108">
        <ele>129</ele>
        <time>2020-05-21T07:55:43Z</time>
      </trkpt>
      <trkpt lat="48.68953" lon="2.06102">
        <ele>129</ele>
        <time>2020-05-21T07:55:53Z</time>
      </trkpt>
      <trkpt lat="48.68972" lon="2.06103">
        <ele>130</ele>
        <time>2020-05-21T07:56:12Z</time>
      </trkpt>
      <trkpt lat="48.68992" lon="2.06107">
        <ele>130</ele>
        <time>2020-05-21T07:56:23Z</time>
      </trkpt>
      <trkpt lat="48.6901" lon="2.06107">
        <ele>131</ele>
        <time>2020-05-21T07:56:38Z</time>
      </trkpt>
      <trkpt lat="48.6903" lon="2.06112">
        <ele>130</ele>
        <time>2020-05-21T07:56:47Z</time>
      </trkpt>
      <trkpt lat="48.69048" lon="2.06112">
        <ele>130</ele>
        <time>2020-05-21T07:57:00Z</time>
      </trkpt>
      <trkpt lat="48.69067" lon="2.06107">
        <ele>130</ele>
        <time>2020-05-21T07:57:11Z</time>
      </trkpt>
      <trkpt lat="48.69085" lon="2.06102">
        <ele>131</ele>
        <time>2020-05-21T07:57:20Z</time>
      </trkpt>
      <trkpt lat="48.69105" lon="2.061">
        <ele>130</ele>
        <time>2020-05-21T07:57:29Z</time>
      </trkpt>
      <trkpt lat="48.69123" lon="2.06098">
        <ele>128</ele>
        <time>2020-05-21T07:57:38Z</time>
      </trkpt>
      <trkpt lat="48.69142" lon="2.06096">
        <ele>128</ele>
        <time>2020-05-21T07:57:58Z</time>
      </trkpt>
      <trkpt lat="48.69161" lon="2.0609">
        <ele>129</ele>
        <time>2020-05-21T07:58:08Z</time>
      </trkpt>
      <trkpt lat="48.69179" lon="2.06082">
        <ele>131</ele>
        <time>2020-05-21T07:58:20Z</time>
      </trkpt>
      <trkpt lat="48.69191" lon="2.06061">
        <ele>132</ele>
        <time>2020-05-21T07:58:38Z</time>
      </trkpt>
      <trkpt lat="48.6921" lon="2.06058">
        <ele>131</ele>
        <time>2020-05-21T07:58:47Z</time>
      </trkpt>
      <trkpt lat="48.69227" lon="2.06049">
        <ele>130</ele>
        <time>2020-05-21T07:58:58Z</time>
      </trkpt>
      <trkpt lat="48.69245" lon="2.06046">
        <ele>130</ele>
        <time>2020-05-21T07:59:07Z</time>
      </trkpt>
      <trkpt lat="48.69264" lon="2.06043">
        <ele>122</ele>
        <time>2020-05-21T07:59:15Z</time>
      </trkpt>
      <trkpt lat="48.69279" lon="2.06026">
        <ele>123</ele>
        <time>2020-05-21T07:59:30Z</time>
      </trkpt>
      <trkpt lat="48.69295" lon="2.06011">
        <ele>122</ele>
        <time>2020-05-21T07:59:43Z</time>
      </trkpt>
      <trkpt lat="48.69313" lon="2.06006">
        <ele>121</ele>
        <time>2020-05-21T07:59:51Z</time>
      </trkpt>
      <trkpt lat="48.69331" lon="2.05998">
        <ele>122</ele>
        <time>2020-05-21T08:00:02Z</time>
      </trkpt>
      <trkpt lat="48.6935" lon="2.05989">
        <ele>120</ele>
        <time>2020-05-21T08:00:15Z</time>
      </trkpt>
      <trkpt lat="48.69369" lon="2.05981">
        <ele>119</ele>
        <time>2020-05-21T08:00:27Z</time>
      </trkpt>
      <trkpt lat="48.69385" lon="2.05969">
        <ele>119</ele>
        <time>2020-05-21T08:00:38Z</time>
      </trkpt>
      <trkpt lat="48.69401" lon="2.05955">
        <ele>119</ele>
        <time>2020-05-21T08:00:50Z</time>
      </trkpt>
      <trkpt lat="48.69418" lon="2.05942">
        <ele>114</ele>
        <time>2020-05-21T08:01:04Z</time>
      </trkpt>
      <trkpt lat="48.69436" lon="2.05938">
        <ele>113</ele>
        <time>2020-05-21T08:01:14Z</time>
      </trkpt>
      <trkpt lat="48.69453" lon="2.0593">
        <ele>112</ele>
        <time>2020-05-21T08:01:28Z</time>
      </trkpt>
      <trkpt lat="48.69472" lon="2.05923">
        <ele>112</ele>
        <time>2020-05-21T08:01:40Z</time>
      </trkpt>
      <trkpt lat="48.69485" lon="2.05903">
        <ele>117</ele>
        <time>2020-05-21T08:01:50Z</time>
      </trkpt>
      <trkpt lat="48.69495" lon="2.05879">
        <ele>119</ele>
        <time>2020-05-21T08:02:04Z</time>
      </trkpt>
      <trkpt lat="48.69502" lon="2.05852">
        <ele>118</ele>
        <time>2020-05-21T08:02:23Z</time>
      </trkpt>
      <trkpt lat="48.69504" lon="2.05823">
        <ele>124</ele>
        <time>2020-05-21T08:02:35Z</time>
      </trkpt>
      <trkpt lat="48.69504" lon="2.05795">
        <ele>128</ele>
        <time>2020-05-21T08:02:51Z</time>
      </trkpt>
      <trkpt lat="48.69506" lon="2.05767">
        <ele>132</ele>
        <time>2020-05-21T08:03:07Z</time>
      </trkpt>
      <trkpt lat="48.69502" lon="2.05738">
        <ele>139</ele>
        <time>2020-05-21T08:03:24Z</time>
      </trkpt>
      <trkpt lat="48.69494" lon="2.05711">
        <ele>145</ele>
        <time>2020-05-21T08:03:40Z</time>
      </trkpt>
      <trkpt lat="48.69487" lon="2.05685">
        <ele>148</ele>
        <time>2020-05-21T08:03:57Z</time>
      </trkpt>
      <trkpt lat="48.69473" lon="2.05666">
        <ele>154</ele>
        <time>2020-05-21T08:04:10Z</time>
      </trkpt>
      <trkpt lat="48.69464" lon="2.05643">
        <ele>156</ele>
        <time>2020-05-21T08:04:34Z</time>
      </trkpt>
      <trkpt lat="48.69481" lon="2.05631">
        <ele>155</ele>
        <time>2020-05-21T08:04:59Z</time>
      </trkpt>
      <trkpt lat="48.69495" lon="2.05612">
        <ele>156</ele>
        <time>2020-05-21T08:05:19Z</time>
      </trkpt>
      <trkpt lat="48.69503" lon="2.05588">
        <ele>157</ele>
        <time>2020-05-21T08:05:36Z</time>
      </trkpt>
      <trkpt lat="48.69516" lon="2.05568">
        <ele>160</ele>
        <time>2020-05-21T08:08:01Z</time>
      </trkpt>
      <trkpt lat="48.69533" lon="2.05577">
        <ele>160</ele>
        <time>2020-05-21T08:08:18Z</time>
      </trkpt>
      <trkpt lat="48.6955" lon="2.05589">
        <ele>157</ele>
        <time>2020-05-21T08:08:30Z</time>
      </trkpt>
      <trkpt lat="48.69569" lon="2.05598">
        <ele>157</ele>
        <time>2020-05-21T08:08:43Z</time>
      </trkpt>
      <trkpt lat="48.69584" lon="2.05613">
        <ele>158</ele>
        <time>2020-05-21T08:08:56Z</time>
      </trkpt>
      <trkpt lat="48.696" lon="2.05627">
        <ele>157</ele>
        <time>2020-05-21T08:09:09Z</time>
      </trkpt>
      <trkpt lat="48.69618" lon="2.05631">
        <ele>157</ele>
        <time>2020-05-21T08:09:46Z</time>
      </trkpt>
      <trkpt lat="48.69636" lon="2.05641">
        <ele>157</ele>
        <time>2020-05-21T08:10:04Z</time>
      </trkpt>
      <trkpt lat="48.69654" lon="2.05645">
        <ele>156</ele>
        <time>2020-05-21T08:10:17Z</time>
      </trkpt>
      <trkpt lat="48.69672" lon="2.05639">
        <ele>157</ele>
        <time>2020-05-21T08:10:45Z</time>
      </trkpt>
      <trkpt lat="48.69682" lon="2.05662">
        <ele>156</ele>
        <time>2020-05-21T08:11:03Z</time>
      </trkpt>
      <trkpt lat="48.697" lon="2.05674">
        <ele>151</ele>
        <time>2020-05-21T08:11:20Z</time>
      </trkpt>
      <trkpt lat="48.69719" lon="2.05671">
        <ele>151</ele>
        <time>2020-05-21T08:11:33Z</time>
      </trkpt>
      <trkpt lat="48.69737" lon="2.05664">
        <ele>155</ele>
        <time>2020-05-21T08:11:53Z</time>
      </trkpt>
      <trkpt lat="48.69756" lon="2.05659">
        <ele>153</ele>
        <time>2020-05-21T08:12:08Z</time>
      </trkpt>
      <trkpt lat="48.69773" lon="2.05648">
        <ele>151</ele>
        <time>2020-05-21T08:12:19Z</time>
      </trkpt>
      <trkpt lat="48.69784" lon="2.05625">
        <ele>150</ele>
        <time>2020-05-21T08:12:32Z</time>
      </trkpt>
      <trkpt lat="48.69796" lon="2.05605">
        <ele>150</ele>
        <time>2020-05-21T08:12:48Z</time>
      </trkpt>
      <trkpt lat="48.69803" lon="2.05579">
        <ele>149</ele>
        <time>2020-05-21T08:13:09Z</time>
      </trkpt>
      <trkpt lat="48.69803" lon="2.05551">
        <ele>150</ele>
        <time>2020-05-21T08:13:39Z</time>
      </trkpt>
      <trkpt lat="48.69806" lon="2.05523">
        <ele>149</ele>
        <time>2020-05-21T08:13:54Z</time>
      </trkpt>
      <trkpt lat="48.6981" lon="2.05496">
        <ele>147</ele>
        <time>2020-05-21T08:14:10Z</time>
      </trkpt>
      <trkpt lat="48.69824" lon="2.05479">
        <ele>146</ele>
        <time>2020-05-21T08:14:28Z</time>
      </trkpt>
      <trkpt lat="48.69832" lon="2.05453">
        <ele>145</ele>
        <time>2020-05-21T08:14:43Z</time>
      </trkpt>
      <trkpt lat="48.69834" lon="2.05425">
        <ele>134</ele>
        <time>2020-05-21T08:14:56Z</time>
      </trkpt>
      <trkpt lat="48.69833" lon="2.05397">
        <ele>140</ele>
        <time>2020-05-21T08:15:07Z</time>
      </trkpt>
      <trkpt lat="48.69832" lon="2.05369">
        <ele>140</ele>
        <time>2020-05-21T08:15:19Z</time>
      </trkpt>
      <trkpt lat="48.69828" lon="2.05342">
        <ele>134</ele>
        <time>2020-05-21T08:15:42Z</time>
      </trkpt>
      <trkpt lat="48.69821" lon="2.05316">
        <ele>135</ele>
        <time>2020-05-21T08:15:58Z</time>
      </trkpt>
      <trkpt lat="48.69818" lon="2.05289">
        <ele>136</ele>
        <time>2020-05-21T08:16:14Z</time>
      </trkpt>
      <trkpt lat="48.69821" lon="2.05261">
        <ele>132</ele>
        <time>2020-05-21T08:16:26Z</time>
      </trkpt>
      <trkpt lat="48.69828" lon="2.05234">
        <ele>131</ele>
        <time>2020-05-21T08:16:40Z</time>
      </trkpt>
      <trkpt lat="48.6983" lon="2.05207">
        <ele>134</ele>
        <time>2020-05-21T08:16:50Z</time>
      </trkpt>
      <trkpt lat="48.69828" lon="2.05178">
        <ele>131</ele>
        <time>2020-05-21T08:17:02Z</time>
      </trkpt>
      <trkpt lat="48.6983" lon="2.05151">
        <ele>134</ele>
        <time>2020-05-21T08:17:14Z</time>
      </trkpt>
      <trkpt lat="48.6983" lon="2.05121">
        <ele>138</ele>
        <time>2020-05-21T08:17:26Z</time>
      </trkpt>
      <trkpt lat="48.69838" lon="2.05093">
        <ele>128</ele>
        <time>2020-05-21T08:17:40Z</time>
      </trkpt>
      <trkpt lat="48.69847" lon="2.05069">
        <ele>128</ele>
        <time>2020-05-21T08:17:52Z</time>
      </trkpt>
      <trkpt lat="48.69857" lon="2.05046">
        <ele>126</ele>
        <time>2020-05-21T08:18:04Z</time>
      </trkpt>
      <trkpt lat="48.69864" lon="2.0502">
        <ele>126</ele>
        <time>2020-05-21T08:18:16Z</time>
      </trkpt>
      <trkpt lat="48.69873" lon="2.04994">
        <ele>130</ele>
        <time>2020-05-21T08:18:29Z</time>
      </trkpt>
      <trkpt lat="48.69885" lon="2.04972">
        <ele>129</ele>
        <time>2020-05-21T08:18:43Z</time>
      </trkpt>
      <trkpt lat="48.69896" lon="2.0495">
        <ele>129</ele>
        <time>2020-05-21T08:19:02Z</time>
      </trkpt>
      <trkpt lat="48.6991" lon="2.04931">
        <ele>128</ele>
        <time>2020-05-21T08:19:15Z</time>
      </trkpt>
      <trkpt lat="48.69922" lon="2.04909">
        <ele>123</ele>
        <time>2020-05-21T08:19:26Z</time>
      </trkpt>
      <trkpt lat="48.69929" lon="2.04882">
        <ele>120</ele>
        <time>2020-05-21T08:19:37Z</time>
      </trkpt>
      <trkpt lat="48.69927" lon="2.04853">
        <ele>122</ele>
        <time>2020-05-21T08:19:49Z</time>
      </trkpt>
      <trkpt lat="48.69928" lon="2.04825">
        <ele>124</ele>
        <time>2020-05-21T08:20:06Z</time>
      </trkpt>
      <trkpt lat="48.69922" lon="2.04798">
        <ele>122</ele>
        <time>2020-05-21T08:20:56Z</time>
      </trkpt>
      <trkpt lat="48.69917" lon="2.04771">
        <ele>123</ele>
        <time>2020-05-21T08:22:17Z</time>
      </trkpt>
      <trkpt lat="48.69921" lon="2.04743">
        <ele>125</ele>
        <time>2020-05-21T08:22:59Z</time>
      </trkpt>
      <trkpt lat="48.6993" lon="2.04719">
        <ele>122</ele>
        <time>2020-05-21T08:23:13Z</time>
      </trkpt>
      <trkpt lat="48.69931" lon="2.04691">
        <ele>122</ele>
        <time>2020-05-21T08:23:25Z</time>
      </trkpt>
      <trkpt lat="48.69934" lon="2.04662">
        <ele>125</ele>
        <time>2020-05-21T08:23:42Z</time>
      </trkpt>
      <trkpt lat="48.6994" lon="2.04634">
        <ele>124</ele>
        <time>2020-05-21T08:23:54Z</time>
      </trkpt>
      <trkpt lat="48.6995" lon="2.04612">
        <ele>124</ele>
        <time>2020-05-21T08:24:51Z</time>
      </trkpt>
      <trkpt lat="48.69965" lon="2.04595">
        <ele>123</ele>
        <time>2020-05-21T08:25:08Z</time>
      </trkpt>
      <trkpt lat="48.6998" lon="2.04578">
        <ele>124</ele>
        <time>2020-05-21T08:25:21Z</time>
      </trkpt>
      <trkpt lat="48.69997" lon="2.04566">
        <ele>123</ele>
        <time>2020-05-21T08:25:36Z</time>
      </trkpt>
      <trkpt lat="48.70011" lon="2.04546">
        <ele>114</ele>
        <time>2020-05-21T08:25:49Z</time>
      </trkpt>
      <trkpt lat="48.70027" lon="2.04531">
        <ele>113</ele>
        <time>2020-05-21T08:26:04Z</time>
      </trkpt>
      <trkpt lat="48.70036" lon="2.04506">
        <ele>112</ele>
        <time>2020-05-21T08:26:18Z</time>
      </trkpt>
      <trkpt lat="48.70039" lon="2.04477">
        <ele>117</ele>
        <time>2020-05-21T08:26:34Z</time>
      </trkpt>
      <trkpt lat="48.70037" lon="2.04449">
        <ele>119</ele>
        <time>2020-05-21T08:26:45Z</time>
      </trkpt>
      <trkpt lat="48.7004" lon="2.04421">
        <ele>119</ele>
        <time>2020-05-21T08:27:03Z</time>
      </trkpt>
      <trkpt lat="48.70047" lon="2.04395">
        <ele>123</ele>
        <time>2020-05-21T08:27:16Z</time>
      </trkpt>
      <trkpt lat="48.70052" lon="2.04368">
        <ele>123</ele>
        <time>2020-05-21T08:27:30Z</time>
      </trkpt>
      <trkpt lat="48.70054" lon="2.0434">
        <ele>122</ele>
        <time>2020-05-21T08:27:43Z</time>
      </trkpt>
      <trkpt lat="48.70057" lon="2.04311">
        <ele>124</ele>
        <time>2020-05-21T08:27:56Z</time>
      </trkpt>
      <trkpt lat="48.70053" lon="2.04283">
        <ele>125</ele>
        <time>2020-05-21T08:28:10Z</time>
      </trkpt>
      <trkpt lat="48.70053" lon="2.04255">
        <ele>125</ele>
        <time>2020-05-21T08:28:23Z</time>
      </trkpt>
      <trkpt lat="48.70053" lon="2.04226">
        <ele>126</ele>
        <time>2020-05-21T08:28:37Z</time>
      </trkpt>
      <trkpt lat="48.7005" lon="2.04199">
        <ele>127</ele>
        <time>2020-05-21T08:29:24Z</time>
      </trkpt>
      <trkpt lat="48.70044" lon="2.04173">
        <ele>127</ele>
        <time>2020-05-21T08:30:01Z</time>
      </trkpt>
      <trkpt lat="48.70036" lon="2.04147">
        <ele>127</ele>
        <time>2020-05-21T08:30:15Z</time>
      </trkpt>
      <trkpt lat="48.70025" lon="2.04125">
        <ele>128</ele>
        <time>2020-05-21T08:30:37Z</time>
      </trkpt>
      <trkpt lat="48.70013" lon="2.04104">
        <ele>128</ele>
        <time>2020-05-21T08:30:50Z</time>
      </trkpt>
      <trkpt lat="48.7" lon="2.04082">
        <ele>131</ele>
        <time>2020-05-21T08:31:06Z</time>
      </trkpt>
      <trkpt lat="48.69987" lon="2.04061">
        <ele>136</ele>
        <time>2020-05-21T08:31:24Z</time>
      </trkpt>
      <trkpt lat="48.69973" lon="2.04045">
        <ele>137</ele>
        <time>2020-05-21T08:31:40Z</time>
      </trkpt>
      <trkpt lat="48.69958" lon="2.04028">
        <ele>138</ele>
        <time>2020-05-21T08:32:03Z</time>
      </trkpt>
      <trkpt lat="48.69955" lon="2.04001">
        <ele>138</ele>
        <time>2020-05-21T08:32:38Z</time>
      </trkpt>
      <trkpt lat="48.69945" lon="2.03976">
        <ele>134</ele>
        <time>2020-05-21T08:32:53Z</time>
      </trkpt>
      <trkpt lat="48.69938" lon="2.0395">
        <ele>133</ele>
        <time>2020-05-21T08:33:26Z</time>
      </trkpt>
      <trkpt lat="48.69924" lon="2.03931">
        <ele>134</ele>
        <time>2020-05-21T08:33:40Z</time>
      </trkpt>
      <trkpt lat="48.69915" lon="2.03906">
        <ele>139</ele>
        <time>2020-05-21T08:33:55Z</time>
      </trkpt>
      <trkpt lat="48.69908" lon="2.03881">
        <ele>141</ele>
        <time>2020-05-21T08:34:11Z</time>
      </trkpt>
      <trkpt lat="48.69896" lon="2.03857">
        <ele>141</ele>
        <time>2020-05-21T08:34:23Z</time>
      </trkpt>
      <trkpt lat="48.69889" lon="2.03832">
        <ele>137</ele>
        <time>2020-05-21T08:34:39Z</time>
      </trkpt>
      <trkpt lat="48.69878" lon="2.03808">
        <ele>139</ele>
        <time>2020-05-21T08:35:31Z</time>
      </trkpt>
      <trkpt lat="48.69869" lon="2.03784">
        <ele>140</ele>
        <time>2020-05-21T08:35:46Z</time>
      </trkpt>
      <trkpt lat="48.69858" lon="2.03761">
        <ele>142</ele>
        <time>2020-05-21T08:36:03Z</time>
      </trkpt>
      <trkpt lat="48.69853" lon="2.03734">
        <ele>138</ele>
        <time>2020-05-21T08:36:17Z</time>
      </trkpt>
      <trkpt lat="48.69842" lon="2.03712">
        <ele>137</ele>
        <time>2020-05-21T08:36:31Z</time>
      </trkpt>
      <trkpt lat="48.69839" lon="2.03685">
        <ele>137</ele>
        <time>2020-05-21T08:36:44Z</time>
      </trkpt>
      <trkpt lat="48.69827" lon="2.03663">
        <ele>142</ele>
        <time>2020-05-21T08:36:55Z</time>
      </trkpt>
      <trkpt lat="48.69816" lon="2.03641">
        <ele>145</ele>
        <time>2020-05-21T08:37:07Z</time>
      </trkpt>
      <trkpt lat="48.69806" lon="2.03617">
        <ele>145</ele>
        <time>2020-05-21T08:37:21Z</time>
      </trkpt>
      <trkpt lat="48.69797" lon="2.03592">
        <ele>145</ele>
        <time>2020-05-21T08:37:37Z</time>
      </trkpt>
      <trkpt lat="48.69805" lon="2.03567">
        <ele>139</ele>
        <time>2020-05-21T08:37:55Z</time>
      </trkpt>
      <trkpt lat="48.69801" lon="2.0354">
        <ele>139</ele>
        <time>2020-05-21T08:38:09Z</time>
      </trkpt>
      <trkpt lat="48.69792" lon="2.03514">
        <ele>139</ele>
        <time>2020-05-21T08:38:21Z</time>
      </trkpt>
      <trkpt lat="48.69797" lon="2.03487">
        <ele>132</ele>
        <time>2020-05-21T08:38:35Z</time>
      </trkpt>
      <trkpt lat="48.69797" lon="2.03458">
        <ele>131</ele>
        <time>2020-05-21T08:38:47Z</time>
      </trkpt>
      <trkpt lat="48.69784" lon="2.03436">
        <ele>132</ele>
        <time>2020-05-21T08:38:57Z</time>
      </trkpt>
      <trkpt lat="48.69771" lon="2.03417">
        <ele>134</ele>
        <time>2020-05-21T08:39:10Z</time>
      </trkpt>
      <trkpt lat="48.69759" lon="2.03396">
        <ele>130</ele>
        <time>2020-05-21T08:39:27Z</time>
      </trkpt>
      <trkpt lat="48.6975" lon="2.03371">
        <ele>137</ele>
        <time>2020-05-21T08:39:46Z</time>
      </trkpt>
      <trkpt lat="48.69738" lon="2.03348">
        <ele>134</ele>
        <time>2020-05-21T08:40:03Z</time>
      </trkpt>
      <trkpt lat="48.69726" lon="2.03327">
        <ele>129</ele>
        <time>2020-05-21T08:40:14Z</time>
      </trkpt>
      <trkpt lat="48.69713" lon="2.03308">
        <ele>130</ele>
        <time>2020-05-21T08:40:28Z</time>
      </trkpt>
      <trkpt lat="48.69698" lon="2.03292">
        <ele>130</ele>
        <time>2020-05-21T08:40:47Z</time>
      </trkpt>
      <trkpt lat="48.69682" lon="2.03277">
        <ele>130</ele>
        <time>2020-05-21T08:41:12Z</time>
      </trkpt>
      <trkpt lat="48.69668" lon="2.03258">
        <ele>129</ele>
        <time>2020-05-21T08:41:25Z</time>
      </trkpt>
      <trkpt lat="48.69671" lon="2.03231">
        <ele>122</ele>
        <time>2020-05-21T08:41:56Z</time>
      </trkpt>
      <trkpt lat="48.69663" lon="2.03205">
        <ele>123</ele>
        <time>2020-05-21T08:42:24Z</time>
      </trkpt>
      <trkpt lat="48.69645" lon="2.03196">
        <ele>122</ele>
        <time>2020-05-21T08:42:39Z</time>
      </trkpt>
      <trkpt lat="48.69627" lon="2.03191">
        <ele>122</ele>
        <time>2020-05-21T08:42:54Z</time>
      </trkpt>
      <trkpt lat="48.69609" lon="2.03186">
        <ele>122</ele>
        <time>2020-05-21T08:43:08Z</time>
      </trkpt>
      <trkpt lat="48.69591" lon="2.03181">
        <ele>120</ele>
        <time>2020-05-21T08:43:20Z</time>
      </trkpt>
      <trkpt lat="48.69573" lon="2.0318">
        <ele>120</ele>
        <time>2020-05-21T08:43:30Z</time>
      </trkpt>
      <trkpt lat="48.69555" lon="2.0318">
        <ele>121</ele>
        <time>2020-05-21T08:43:41Z</time>
      </trkpt>
      <trkpt lat="48.69536" lon="2.03185">
        <ele>121</ele>
        <time>2020-05-21T08:43:54Z</time>
      </trkpt>
      <trkpt lat="48.69518" lon="2.03197">
        <ele>121</ele>
        <time>2020-05-21T08:44:07Z</time>
      </trkpt>
      <trkpt lat="48.69502" lon="2.03208">
        <ele>122</ele>
        <time>2020-05-21T08:44:17Z</time>
      </trkpt>
      <trkpt lat="48.69485" lon="2.0322">
        <ele>122</ele>
        <time>2020-05-21T08:44:33Z</time>
      </trkpt>
      <trkpt lat="48.69469" lon="2.03232">
        <ele>123</ele>
        <time>2020-05-21T08:44:44Z</time>
      </trkpt>
      <trkpt lat="48.6945" lon="2.03232">
        <ele>123</ele>
        <time>2020-05-21T08:45:10Z</time>
      </trkpt>
      <trkpt lat="48.69448" lon="2.03205">
        <ele>121</ele>
        <time>2020-05-21T08:45:36Z</time>
      </trkpt>
      <trkpt lat="48.69435" lon="2.03186">
        <ele>121</ele>
        <time>2020-05-21T08:45:58Z</time>
      </trkpt>
      <trkpt lat="48.69425" lon="2.03162">
        <ele>119</ele>
        <time>2020-05-21T08:46:16Z</time>
      </trkpt>
      <trkpt lat="48.69416" lon="2.03136">
        <ele>127</ele>
        <time>2020-05-21T08:46:32Z</time>
      </trkpt>
      <trkpt lat="48.69403" lon="2.03117">
        <ele>128</ele>
        <time>2020-05-21T08:46:43Z</time>
      </trkpt>
      <trkpt lat="48.6939" lon="2.03096">
        <ele>128</ele>
        <time>2020-05-21T08:46:56Z</time>
      </trkpt>
      <trkpt lat="48.69375" lon="2.03079">
        <ele>131</ele>
        <time>2020-05-21T08:47:11Z</time>
      </trkpt>
      <trkpt lat="48.69357" lon="2.0307">
        <ele>133</ele>
        <time>2020-05-21T08:47:26Z</time>
      </trkpt>
      <trkpt lat="48.69341" lon="2.03055">
        <ele>134</ele>
        <time>2020-05-21T08:47:44Z</time>
      </trkpt>
      <trkpt lat="48.69324" lon="2.03041">
        <ele>145</ele>
        <time>2020-05-21T08:47:59Z</time>
      </trkpt>
      <trkpt lat="48.69306" lon="2.03034">
        <ele>146</ele>
        <time>2020-05-21T08:48:09Z</time>
      </trkpt>
      <trkpt lat="48.69287" lon="2.03032">
        <ele>148</ele>
        <time>2020-05-21T08:48:20Z</time>
      </trkpt>
      <trkpt lat="48.6927" lon="2.03042">
        <ele>150</ele>
        <time>2020-05-21T08:48:32Z</time>
      </trkpt>
      <trkpt lat="48.69252" lon="2.0305">
        <ele>151</ele>
        <time>2020-05-21T08:48:46Z</time>
      </trkpt>
      <trkpt lat="48.69235" lon="2.03058">
        <ele>159</ele>
        <time>2020-05-21T08:49:21Z</time>
      </trkpt>
      <trkpt lat="48.69238" lon="2.0303">
        <ele>158</ele>
        <time>2020-05-21T08:50:20Z</time>
      </trkpt>
      <trkpt lat="48.69232" lon="2.03005">
        <ele>157</ele>
        <time>2020-05-21T08:50:32Z</time>
      </trkpt>
      <trkpt lat="48.69225" lon="2.02979">
        <ele>157</ele>
        <time>2020-05-21T08:50:44Z</time>
      </trkpt>
      <trkpt lat="48.6923" lon="2.0295">
        <ele>156</ele>
        <time>2020-05-21T08:50:54Z</time>
      </trkpt>
      <trkpt lat="48.69231" lon="2.02923">
        <ele>155</ele>
        <time>2020-05-21T08:51:07Z</time>
      </trkpt>
      <trkpt lat="48.69232" lon="2.02894">
        <ele>154</ele>
        <time>2020-05-21T08:51:20Z</time>
      </trkpt>
      <trkpt lat="48.6923" lon="2.02865">
        <ele>154</ele>
        <time>2020-05-21T08:51:33Z</time>
      </trkpt>
      <trkpt lat="48.69226" lon="2.02838">
        <ele>154</ele>
        <time>2020-05-21T08:51:51Z</time>
      </trkpt>
      <trkpt lat="48.69223" lon="2.0281">
        <ele>153</ele>
        <time>2020-05-21T08:53:26Z</time>
      </trkpt>
      <trkpt lat="48.6924" lon="2.02801">
        <ele>152</ele>
        <time>2020-05-21T08:53:41Z</time>
      </trkpt>
      <trkpt lat="48.69256" lon="2.02786">
        <ele>145</ele>
        <time>2020-05-21T08:53:54Z</time>
      </trkpt>
      <trkpt lat="48.69268" lon="2.02766">
        <ele>145</ele>
        <time>2020-05-21T08:54:06Z</time>
      </trkpt>
      <trkpt lat="48.69278" lon="2.02742">
        <ele>144</ele>
        <time>2020-05-21T08:54:18Z</time>
      </trkpt>
      <trkpt lat="48.69293" lon="2.02723">
        <ele>142</ele>
        <time>2020-05-21T08:54:32Z</time>
      </trkpt>
      <trkpt lat="48.69307" lon="2.02705">
        <ele>141</ele>
        <time>2020-05-21T08:54:45Z</time>
      </trkpt>
      <trkpt lat="48.6932" lon="2.02685">
        <ele>139</ele>
        <time>2020-05-21T08:55:01Z</time>
      </trkpt>
      <trkpt lat="48.69331" lon="2.02662">
        <ele>135</ele>
        <time>2020-05-21T08:55:14Z</time>
      </trkpt>
      <trkpt lat="48.69331" lon="2.02634">
        <ele>137</ele>
        <time>2020-05-21T08:55:28Z</time>
      </trkpt>
      <trkpt lat="48.69324" lon="2.02609">
        <ele>136</ele>
        <time>2020-05-21T08:55:41Z</time>
      </trkpt>
      <trkpt lat="48.69316" lon="2.02583">
        <ele>134</ele>
        <time>2020-05-21T08:55:57Z</time>
      </trkpt>
      <trkpt lat="48.69309" lon="2.02557">
        <ele>135</ele>
        <time>2020-05-21T08:56:12Z</time>
      </trkpt>
      <trkpt lat="48.69307" lon="2.02527">
        <ele>135</ele>
        <time>2020-05-21T08:56:28Z</time>
      </trkpt>
      <trkpt lat="48.69317" lon="2.02502">
        <ele>131</ele>
        <time>2020-05-21T08:56:41Z</time>
      </trkpt>
      <trkpt lat="48.69326" lon="2.02478">
        <ele>131</ele>
        <time>2020-05-21T08:56:53Z</time>
      </trkpt>
      <trkpt lat="48.69322" lon="2.0245">
        <ele>131</ele>
        <time>2020-05-21T08:57:05Z</time>
      </trkpt>
      <trkpt lat="48.69312" lon="2.02427">
        <ele>131</ele>
        <time>2020-05-21T08:57:21Z</time>
      </trkpt>
      <trkpt lat="48.69304" lon="2.02402">
        <ele>130</ele>
        <time>2020-05-21T08:57:45Z</time>
      </trkpt>
      <trkpt lat="48.69287" lon="2.02388">
        <ele>132</ele>
        <time>2020-05-21T08:57:58Z</time>
      </trkpt>
      <trkpt lat="48.69273" lon="2.0237">
        <ele>132</ele>
        <time>2020-05-21T08:58:13Z</time>
      </trkpt>
      <trkpt lat="48.69265" lon="2.02344">
        <ele>134</ele>
        <time>2020-05-21T08:58:31Z</time>
      </trkpt>
      <trkpt lat="48.69252" lon="2.02322">
        <ele>132</ele>
        <time>2020-05-21T08:58:52Z</time>
      </trkpt>
      <trkpt lat="48.69239" lon="2.023">
        <ele>136</ele>
        <time>2020-05-21T08:59:05Z</time>
      </trkpt>
      <trkpt lat="48.69224" lon="2.02281">
        <ele>135</ele>
        <time>2020-05-21T08:59:18Z</time>
      </trkpt>
      <trkpt lat="48.69207" lon="2.0227">
        <ele>136</ele>
        <time>2020-05-21T08:59:30Z</time>
      </trkpt>
      <trkpt lat="48.69191" lon="2.02257">
        <ele>137</ele>
        <time>2020-05-21T08:59:42Z</time>
      </trkpt>
      <trkpt lat="48.69175" lon="2.02241">
        <ele>134</ele>
        <time>2020-05-21T08:59:54Z</time>
      </trkpt>
      <trkpt lat="48.69159" lon="2.02227">
        <ele>136</ele>
        <time>2020-05-21T09:00:05Z</time>
      </trkpt>
      <trkpt lat="48.69143" lon="2.02212">
        <ele>136</ele>
        <time>2020-05-21T09:00:18Z</time>
      </trkpt>
      <trkpt lat="48.69127" lon="2.02198">
        <ele>136</ele>
        <time>2020-05-21T09:00:29Z</time>
      </trkpt>
      <trkpt lat="48.69111" lon="2.02183">
        <ele>135</ele>
        <time>2020-05-21T09:00:42Z</time>
      </trkpt>
      <trkpt lat="48.69097" lon="2.02164">
        <ele>130</ele>
        <time>2020-05-21T09:00:54Z</time>
      </trkpt>
      <trkpt lat="48.69084" lon="2.02145">
        <ele>129</ele>
        <time>2020-05-21T09:01:07Z</time>
      </trkpt>
      <trkpt lat="48.69069" lon="2.0213">
        <ele>129</ele>
        <time>2020-05-21T09:01:17Z</time>
      </trkpt>
      <trkpt lat="48.69051" lon="2.02116">
        <ele>128</ele>
        <time>2020-05-21T09:01:29Z</time>
      </trkpt>
      <trkpt lat="48.69034" lon="2.02106">
        <ele>127</ele>
        <time>2020-05-21T09:01:39Z</time>
      </trkpt>
      <trkpt lat="48.69018" lon="2.02092">
        <ele>126</ele>
        <time>2020-05-21T09:01:55Z</time>
      </trkpt>
      <trkpt lat="48.68999" lon="2.02087">
        <ele>124</ele>
        <time>2020-05-21T09:02:10Z</time>
      </trkpt>
      <trkpt lat="48.68981" lon="2.02078">
        <ele>120</ele>
        <time>2020-05-21T09:02:24Z</time>
      </trkpt>
      <trkpt lat="48.68964" lon="2.02072">
        <ele>120</ele>
        <time>2020-05-21T09:02:35Z</time>
      </trkpt>
      <trkpt lat="48.68946" lon="2.02065">
        <ele>120</ele>
        <time>2020-05-21T09:02:51Z</time>
      </trkpt>
      <trkpt lat="48.68926" lon="2.02063">
        <ele>121</ele>
        <time>2020-05-21T09:03:05Z</time>
      </trkpt>
      <trkpt lat="48.68909" lon="2.02057">
        <ele>120</ele>
        <time>2020-05-21T09:03:21Z</time>
      </trkpt>
      <trkpt lat="48.68891" lon="2.0205">
        <ele>118</ele>
        <time>2020-05-21T09:03:37Z</time>
      </trkpt>
      <trkpt lat="48.68872" lon="2.0205">
        <ele>118</ele>
        <time>2020-05-21T09:03:51Z</time>
      </trkpt>
      <trkpt lat="48.68854" lon="2.02057">
        <ele>117</ele>
        <time>2020-05-21T09:04:32Z</time>
      </trkpt>
      <trkpt lat="48.68838" lon="2.02072">
        <ele>118</ele>
        <time>2020-05-21T09:04:48Z</time>
      </trkpt>
      <trkpt lat="48.68822" lon="2.02082">
        <ele>117</ele>
        <time>2020-05-21T09:05:03Z</time>
      </trkpt>
      <trkpt lat="48.68804" lon="2.02091">
        <ele>120</ele>
        <time>2020-05-21T09:05:17Z</time>
      </trkpt>
      <trkpt lat="48.68786" lon="2.02103">
        <ele>121</ele>
        <time>2020-05-21T09:05:31Z</time>
      </trkpt>
      <trkpt lat="48.68768" lon="2.02112">
        <ele>120</ele>
        <time>2020-05-21T09:05:47Z</time>
      </trkpt>
      <trkpt lat="48.68749" lon="2.02115">
        <ele>119</ele>
        <time>2020-05-21T09:06:01Z</time>
      </trkpt>
      <trkpt lat="48.68731" lon="2.02122">
        <ele>120</ele>
        <time>2020-05-21T09:06:13Z</time>
      </trkpt>
      <trkpt lat="48.68713" lon="2.02133">
        <ele>121</ele>
        <time>2020-05-21T09:06:28Z</time>
      </trkpt>
      <trkpt lat="48.68695" lon="2.0214">
        <ele>121</ele>
        <time>2020-05-21T09:06:41Z</time>
      </trkpt>
      <trkpt lat="48.68677" lon="2.02147">
        <ele>122</ele>
        <time>2020-05-21T09:06:54Z</time>
      </trkpt>
      <trkpt lat="48.68658" lon="2.0215">
        <ele>121</ele>
        <time>2020-05-21T09:07:07Z</time>
      </trkpt>
      <trkpt lat="48.6864" lon="2.02154">
        <ele>120</ele>
        <time>2020-05-21T09:07:18Z</time>
      </trkpt>
      <trkpt lat="48.68623" lon="2.02165">
        <ele>119</ele>
        <time>2020-05-21T09:07:29Z</time>
      </trkpt>
      <trkpt lat="48.68609" lon="2.02183">
        <ele>122</ele>
        <time>2020-05-21T09:07:49Z</time>
      </trkpt>
      <trkpt lat="48.68596" lon="2.02203">
        <ele>123</ele>
        <time>2020-05-21T09:08:01Z</time>
      </trkpt>
      <trkpt lat="48.68586" lon="2.02227">
        <ele>124</ele>
        <time>2020-05-21T09:08:15Z</time>
      </trkpt>
      <trkpt lat="48.68578" lon="2.02253">
        <ele>123</ele>
        <time>2020-05-21T09:08:27Z</time>
      </trkpt>
      <trkpt lat="48.68567" lon="2.02277">
        <ele>124</ele>
        <time>2020-05-21T09:08:42Z</time>
      </trkpt>
      <trkpt lat="48.68559" lon="2.02302">
        <ele>126</ele>
        <time>2020-05-21T09:09:03Z</time>
      </trkpt>
      <trkpt lat="48.68544" lon="2.02319">
        <ele>126</ele>
        <time>2020-05-21T09:09:20Z</time>
      </trkpt>
      <trkpt lat="48.6853" lon="2.02336">
        <ele>130</ele>
        <time>2020-05-21T09:11:16Z</time>
      </trkpt>
      <trkpt lat="48.68521" lon="2.02362">
        <ele>131</ele>
        <time>2020-05-21T09:11:33Z</time>
      </trkpt>
      <trkpt lat="48.68512" lon="2.02387">
        <ele>132</ele>
        <time>2020-05-21T09:11:50Z</time>
      </trkpt>
      <trkpt lat="48.68504" lon="2.02412">
        <ele>131</ele>
        <time>2020-05-21T09:12:03Z</time>
      </trkpt>
      <trkpt lat="48.68495" lon="2.02437">
        <ele>133</ele>
        <time>2020-05-21T09:12:16Z</time>
      </trkpt>
      <trkpt lat="48.68487" lon="2.02462">
        <ele>134</ele>
        <time>2020-05-21T09:12:29Z</time>
      </trkpt>
      <trkpt lat="48.68475" lon="2.02482">
        <ele>134</ele>
        <time>2020-05-21T09:12:40Z</time>
      </trkpt>
      <trkpt lat="48.68465" lon="2.02506">
        <ele>137</ele>
        <time>2020-05-21T09:12:53Z</time>
      </trkpt>
      <trkpt lat="48.68452" lon="2.02528">
        <ele>137</ele>
        <time>2020-05-21T09:13:08Z</time>
      </trkpt>
      <trkpt lat="48.68439" lon="2.02549">
        <ele>137</ele>
        <time>2020-05-21T09:13:22Z</time>
      </trkpt>
      <trkpt lat="48.68427" lon="2.02571">
        <ele>136</ele>
        <time>2020-05-21T09:13:35Z</time>
      </trkpt>
      <trkpt lat="48.68414" lon="2.02592">
        <ele>135</ele>
        <time>2020-05-21T09:13:48Z</time>
      </trkpt>
      <trkpt lat="48.68404" lon="2.02617">
        <ele>138</ele>
        <time>2020-05-21T09:14:03Z</time>
      </trkpt>
      <trkpt lat="48.68393" lon="2.02641">
        <ele>139</ele>
        <time>2020-05-21T09:14:14Z</time>
      </trkpt>
      <trkpt lat="48.68381" lon="2.02663">
        <ele>139</ele>
        <time>2020-05-21T09:14:27Z</time>
      </trkpt>
      <trkpt lat="48.68368" lon="2.02684">
        <ele>143</ele>
        <time>2020-05-21T09:14:40Z</time>
      </trkpt>
      <trkpt lat="48.68354" lon="2.02703">
        <ele>144</ele>
        <time>2020-05-21T09:14:52Z</time>
      </trkpt>
      <trkpt lat="48.68338" lon="2.02716">
        <ele>144</ele>
        <time>2020-05-21T09:15:04Z</time>
      </trkpt>
      <trkpt lat="48.68322" lon="2.02732">
        <ele>144</ele>
        <time>2020-05-21T09:15:16Z</time>
      </trkpt>
      <trkpt lat="48.68306" lon="2.02747">
        <ele>144</ele>
        <time>2020-05-21T09:15:33Z</time>
      </trkpt>
      <trkpt lat="48.68287" lon="2.02754">
        <ele>148</ele>
        <time>2020-05-21T09:15:45Z</time>
      </trkpt>
      <trkpt lat="48.68268" lon="2.02759">
        <ele>147</ele>
        <time>2020-05-21T09:15:59Z</time>
      </trkpt>
      <trkpt lat="48.68251" lon="2.02769">
        <ele>147</ele>
        <time>2020-05-21T09:16:14Z</time>
      </trkpt>
      <trkpt lat="48.68234" lon="2.0278">
        <ele>149</ele>
        <time>2020-05-21T09:16:28Z</time>
      </trkpt>
      <trkpt lat="48.68219" lon="2.02796">
        <ele>150</ele>
        <time>2020-05-21T09:16:40Z</time>
      </trkpt>
      <trkpt lat="48.68201" lon="2.02804">
        <ele>150</ele>
        <time>2020-05-21T09:16:55Z</time>
      </trkpt>
      <trkpt lat="48.68183" lon="2.02811">
        <ele>151</ele>
        <time>2020-05-21T09:17:07Z</time>
      </trkpt>
      <trkpt lat="48.68165" lon="2.02811">
        <ele>151</ele>
        <time>2020-05-21T09:17:22Z</time>
      </trkpt>
      <trkpt lat="48.6815" lon="2.02795">
        <ele>151</ele>
        <time>2020-05-21T09:17:39Z</time>
      </trkpt>
      <trkpt lat="48.68133" lon="2.02783">
        <ele>151</ele>
        <time>2020-05-21T09:17:48Z</time>
      </trkpt>
      <trkpt lat="48.68119" lon="2.02763">
        <ele>151</ele>
        <time>2020-05-21T09:18:01Z</time>
      </trkpt>
      <trkpt lat="48.68105" lon="2.02744">
        <ele>154</ele>
        <time>2020-05-21T09:18:16Z</time>
      </trkpt>
      <trkpt lat="48.68093" lon="2.02721">
        <ele>155</ele>
        <time>2020-05-21T09:18:32Z</time>
      </trkpt>
      <trkpt lat="48.68078" lon="2.02707">
        <ele>157</ele>
        <time>2020-05-21T09:18:45Z</time>
      </trkpt>
      <trkpt lat="48.68061" lon="2.02692">
        <ele>157</ele>
        <time>2020-05-21T09:18:58Z</time>
      </trkpt>
      <trkpt lat="48.68043" lon="2.02683">
        <ele>157</ele>
        <time>2020-05-21T09:19:13Z</time>
      </trkpt>
      <trkpt lat="48.68026" lon="2.02674">
        <ele>157</ele>
        <time>2020-05-21T09:19:29Z</time>
      </trkpt>
      <trkpt lat="48.68021" lon="2.02648">
        <ele>160</ele>
        <time>2020-05-21T09:19:44Z</time>
      </trkpt>
      <trkpt lat="48.68008" lon="2.02627">
        <ele>160</ele>
        <time>2020-05-21T09:20:00Z</time>
      </trkpt>
      <trkpt lat="48.67993" lon="2.02607">
        <ele>160</ele>
        <time>2020-05-21T09:20:11Z</time>
      </trkpt>
      <trkpt lat="48.67978" lon="2.02592">
        <ele>160</ele>
        <time>2020-05-21T09:20:23Z</time>
      </trkpt>
      <trkpt lat="48.67961" lon="2.02577">
        <ele>161</ele>
        <time>2020-05-21T09:20:37Z</time>
      </trkpt>
      <trkpt lat="48.67945" lon="2.02563">
        <ele>161</ele>
        <time>2020-05-21T09:20:51Z</time>
      </trkpt>
      <trkpt lat="48.67926" lon="2.02558">
        <ele>161</ele>
        <time>2020-05-21T09:21:04Z</time>
      </trkpt>
      <trkpt lat="48.67907" lon="2.02557">
        <ele>161</ele>
        <time>2020-05-21T09:21:15Z</time>
      </trkpt>
      <trkpt lat="48.67889" lon="2.02558">
        <ele>161</ele>
        <time>2020-05-21T09:21:28Z</time>
      </trkpt>
      <trkpt lat="48.67871" lon="2.0256">
        <ele>161</ele>
        <time>2020-05-21T09:21:42Z</time>
      </trkpt>
      <trkpt lat="48.67852" lon="2.02558">
        <ele>161</ele>
        <time>2020-05-21T09:22:10Z</time>
      </trkpt>
      <trkpt lat="48.67833" lon="2.0256">
        <ele>160</ele>
        <time>2020-05-21T09:22:27Z</time>
      </trkpt>
      <trkpt lat="48.67815" lon="2.02562">
        <ele>162</ele>
        <time>2020-05-21T09:22:43Z</time>
      </trkpt>
      <trkpt lat="48.67797" lon="2.02558">
        <ele>163</ele>
        <time>2020-05-21T09:22:54Z</time>
      </trkpt>
      <trkpt lat="48.67778" lon="2.02555">
        <ele>163</ele>
        <time>2020-05-21T09:23:06Z</time>
      </trkpt>
      <trkpt lat="48.67759" lon="2.02549">
        <ele>163</ele>
        <time>2020-05-21T09:23:17Z</time>
      </trkpt>
      <trkpt lat="48.6774" lon="2.02545">
        <ele>165</ele>
        <time>2020-05-21T09:23:27Z</time>
      </trkpt>
      <trkpt lat="48.67721" lon="2.02538">
        <ele>165</ele>
        <time>2020-05-21T09:23:40Z</time>
      </trkpt>
      <trkpt lat="48.67703" lon="2.0253">
        <ele>166</ele>
        <time>2020-05-21T09:23:53Z</time>
      </trkpt>
      <trkpt lat="48.67686" lon="2.02518">
        <ele>166</ele>
        <time>2020-05-21T09:24:08Z</time>
      </trkpt>
      <trkpt lat="48.67672" lon="2.025">
        <ele>168</ele>
        <time>2020-05-21T09:24:25Z</time>
      </trkpt>
      <trkpt lat="48.67655" lon="2.02487">
        <ele>170</ele>
        <time>2020-05-21T09:24:36Z</time>
      </trkpt>
      <trkpt lat="48.67638" lon="2.02476">
        <ele>171</ele>
        <time>2020-05-21T09:24:47Z</time>
      </trkpt>
      <trkpt lat="48.67624" lon="2.02458">
        <ele>172</ele>
        <time>2020-05-21T09:25:06Z</time>
      </trkpt>
      <trkpt lat="48.67608" lon="2.02444">
        <ele>173</ele>
        <time>2020-05-21T09:25:21Z</time>
      </trkpt>
      <trkpt lat="48.67591" lon="2.02431">
        <ele>173</ele>
        <time>2020-05-21T09:25:35Z</time>
      </trkpt>
      <trkpt lat="48.67607" lon="2.02415">
        <ele>173</ele>
        <time>2020-05-21T09:27:02Z</time>
      </trkpt>
      <trkpt lat="48.67623" lon="2.02403">
        <ele>173</ele>
        <time>2020-05-21T09:28:17Z</time>
      </trkpt>
      <trkpt lat="48.6764" lon="2.02394">
        <ele>173</ele>
        <time>2020-05-21T09:28:38Z</time>
      </trkpt>
      <trkpt lat="48.67659" lon="2.02387">
        <ele>173</ele>
        <time>2020-05-21T09:28:51Z</time>
      </trkpt>
      <trkpt lat="48.67676" lon="2.02377">
        <ele>172</ele>
        <time>2020-05-21T09:29:06Z</time>
      </trkpt>
      <trkpt lat="48.67694" lon="2.02376">
        <ele>172</ele>
        <time>2020-05-21T09:29:20Z</time>
      </trkpt>
      <trkpt lat="48.67713" lon="2.02369">
        <ele>172</ele>
        <time>2020-05-21T09:29:32Z</time>
      </trkpt>
      <trkpt lat="48.67732" lon="2.02371">
        <ele>172</ele>
        <time>2020-05-21T09:29:48Z</time>
      </trkpt>
      <trkpt lat="48.67751" lon="2.02367">
        <ele>172</ele>
        <time>2020-05-21T09:30:01Z</time>
      </trkpt>
      <trkpt lat="48.67769" lon="2.02362">
        <ele>172</ele>
        <time>2020-05-21T09:30:14Z</time>
      </trkpt>
      <trkpt lat="48.67787" lon="2.02361">
        <ele>172</ele>
        <time>2020-05-21T09:30:28Z</time>
      </trkpt>
      <trkpt lat="48.67805" lon="2.02358">
        <ele>172</ele>
        <time>2020-05-21T09:30:42Z</time>
      </trkpt>
      <trkpt lat="48.67824" lon="2.02355">
        <ele>172</ele>
        <time>2020-05-21T09:30:55Z</time>
      </trkpt>
      <trkpt lat="48.67842" lon="2.02348">
        <ele>171</ele>
        <time>2020-05-21T09:31:08Z</time>
      </trkpt>
      <trkpt lat="48.67859" lon="2.02353">
        <ele>170</ele>
        <time>2020-05-21T09:31:22Z</time>
      </trkpt>
      <trkpt lat="48.67869" lon="2.02377">
        <ele>170</ele>
        <time>2020-05-21T09:31:57Z</time>
      </trkpt>
      <trkpt lat="48.67861" lon="2.02402">
        <ele>170</ele>
        <time>2020-05-21T09:32:13Z</time>
      </trkpt>
      <trkpt lat="48.6786" lon="2.0243">
        <ele>168</ele>
        <time>2020-05-21T09:32:32Z</time>
      </trkpt>
      <trkpt lat="48.67859" lon="2.02459">
        <ele>168</ele>
        <time>2020-05-21T09:32:47Z</time>
      </trkpt>
      <trkpt lat="48.67857" lon="2.02487">
        <ele>167</ele>
        <time>2020-05-21T09:33:01Z</time>
      </trkpt>
      <trkpt lat="48.67854" lon="2.02516">
        <ele>164</ele>
        <time>2020-05-21T09:33:15Z</time>
      </trkpt>
      <trkpt lat="48.67858" lon="2.02543">
        <ele>162</ele>
        <time>2020-05-21T09:33:27Z</time>
      </trkpt>
      <trkpt lat="48.67867" lon="2.02569">
        <ele>160</ele>
        <time>2020-05-21T09:33:41Z</time>
      </trkpt>
      <trkpt lat="48.67879" lon="2.02591">
        <ele>158</ele>
        <time>2020-05-21T09:33:53Z</time>
      </trkpt>
      <trkpt lat="48.67892" lon="2.02613">
        <ele>158</ele>
        <time>2020-05-21T09:34:06Z</time>
      </trkpt>
      <trkpt lat="48.67908" lon="2.02627">
        <ele>158</ele>
        <time>2020-05-21T09:34:22Z</time>
      </trkpt>
      <trkpt lat="48.67924" lon="2.0264">
        <ele>159</ele>
        <time>2020-05-21T09:34:38Z</time>
      </trkpt>
      <trkpt lat="48.67941" lon="2.02651">
        <ele>159</ele>
        <time>2020-05-21T09:34:51Z</time>
      </trkpt>
      <trkpt lat="48.67957" lon="2.02666">
        <ele>159</ele>
        <time>2020-05-21T09:35:05Z</time>
      </trkpt>
      <trkpt lat="48.67972" lon="2.02682">
        <ele>159</ele>
        <time>2020-05-21T09:35:21Z</time>
      </trkpt>
      <trkpt lat="48.6798" lon="2.02707">
        <ele>160</ele>
        <time>2020-05-21T09:35:34Z</time>
      </trkpt>
      <trkpt lat="48.67985" lon="2.02734">
        <ele>161</ele>
        <time>2020-05-21T09:35:46Z</time>
      </trkpt>
      <trkpt lat="48.67984" lon="2.02762">
        <ele>162</ele>
        <time>2020-05-21T09:36:05Z</time>
      </trkpt>
      <trkpt lat="48.67976" lon="2.02787">
        <ele>162</ele>
        <time>2020-05-21T09:36:19Z</time>
      </trkpt>
      <trkpt lat="48.67976" lon="2.02815">
        <ele>162</ele>
        <time>2020-05-21T09:36:37Z</time>
      </trkpt>
      <trkpt lat="48.67974" lon="2.02844">
        <ele>162</ele>
        <time>2020-05-21T09:37:08Z</time>
      </trkpt>
      <trkpt lat="48.67969" lon="2.02872">
        <ele>163</ele>
        <time>2020-05-21T09:37:21Z</time>
      </trkpt>
      <trkpt lat="48.67967" lon="2.029">
        <ele>163</ele>
        <time>2020-05-21T09:37:34Z</time>
      </trkpt>
      <trkpt lat="48.67979" lon="2.02922">
        <ele>164</ele>
        <time>2020-05-21T09:37:51Z</time>
      </trkpt>
      <trkpt lat="48.67995" lon="2.02934">
        <ele>163</ele>
        <time>2020-05-21T09:38:03Z</time>
      </trkpt>
      <trkpt lat="48.68013" lon="2.02942">
        <ele>164</ele>
        <time>2020-05-21T09:38:20Z</time>
      </trkpt>
      <trkpt lat="48.68028" lon="2.02957">
        <ele>164</ele>
        <time>2020-05-21T09:38:33Z</time>
      </trkpt>
      <trkpt lat="48.68042" lon="2.02976">
        <ele>165</ele>
        <time>2020-05-21T09:38:46Z</time>
      </trkpt>
      <trkpt lat="48.6806" lon="2.02983">
        <ele>165</ele>
        <time>2020-05-21T09:39:02Z</time>
      </trkpt>
      <trkpt lat="48.68079" lon="2.02989">
        <ele>166</ele>
        <time>2020-05-21T09:39:20Z</time>
      </trkpt>
      <trkpt lat="48.68098" lon="2.02991">
        <ele>166</ele>
        <time>2020-05-21T09:39:33Z</time>
      </trkpt>
      <trkpt lat="48.68116" lon="2.02991">
        <ele>166</ele>
        <time>2020-05-21T09:39:46Z</time>
      </trkpt>
      <trkpt lat="48.68135" lon="2.02994">
        <ele>166</ele>
        <time>2020-05-21T09:40:01Z</time>
      </trkpt>
      <trkpt lat="48.68153" lon="2.02991">
        <ele>167</ele>
        <time>2020-05-21T09:40:18Z</time>
      </trkpt>
      <trkpt lat="48.68172" lon="2.02994">
        <ele>168</ele>
        <time>2020-05-21T09:40:30Z</time>
      </trkpt>
      <trkpt lat="48.68191" lon="2.02994">
        <ele>169</ele>
        <time>2020-05-21T09:40:44Z</time>
      </trkpt>
      <trkpt lat="48.6821" lon="2.03003">
        <ele>172</ele>
        <time>2020-05-21T09:40:59Z</time>
      </trkpt>
      <trkpt lat="48.68223" lon="2.03022">
        <ele>173</ele>
        <time>2020-05-21T09:41:16Z</time>
      </trkpt>
      <trkpt lat="48.68232" lon="2.03047">
        <ele>174</ele>
        <time>2020-05-21T09:41:33Z</time>
      </trkpt>
      <trkpt lat="48.68248" lon="2.03063">
        <ele>175</ele>
        <time>2020-05-21T09:41:45Z</time>
      </trkpt>
      <trkpt lat="48.68266" lon="2.03071">
        <ele>177</ele>
        <time>2020-05-21T09:41:59Z</time>
      </trkpt>
      <trkpt lat="48.68283" lon="2.03078">
        <ele>177</ele>
        <time>2020-05-21T09:42:12Z</time>
      </trkpt>
      <trkpt lat="48.68301" lon="2.03086">
        <ele>178</ele>
        <time>2020-05-21T09:42:24Z</time>
      </trkpt>
      <trkpt lat="48.68319" lon="2.03092">
        <ele>178</ele>
        <time>2020-05-21T09:42:38Z</time>
      </trkpt>
      <trkpt lat="48.68336" lon="2.03104">
        <ele>178</ele>
        <time>2020-05-21T09:42:50Z</time>
      </trkpt>
      <trkpt lat="48.68354" lon="2.0311">
        <ele>178</ele>
        <time>2020-05-21T09:43:02Z</time>
      </trkpt>
      <trkpt lat="48.68372" lon="2.03117">
        <ele>178</ele>
        <time>2020-05-21T09:43:15Z</time>
      </trkpt>
      <trkpt lat="48.68389" lon="2.03128">
        <ele>178</ele>
        <time>2020-05-21T09:43:27Z</time>
      </trkpt>
      <trkpt lat="48.68408" lon="2.03131">
        <ele>178</ele>
        <time>2020-05-21T09:43:39Z</time>
      </trkpt>
      <trkpt lat="48.68426" lon="2.03126">
        <ele>178</ele>
        <time>2020-05-21T09:43:51Z</time>
      </trkpt>
      <trkpt lat="48.68444" lon="2.03121">
        <ele>178</ele>
        <time>2020-05-21T09:44:04Z</time>
      </trkpt>
      <trkpt lat="48.68463" lon="2.03116">
        <ele>178</ele>
        <time>2020-05-21T09:44:19Z</time>
      </trkpt>
      <trkpt lat="48.68481" lon="2.03107">
        <ele>178</ele>
        <time>2020-05-21T09:44:33Z</time>
      </trkpt>
      <trkpt lat="48.68499" lon="2.03101">
        <ele>178</ele>
        <time>2020-05-21T09:44:46Z</time>
      </trkpt>
      <trkpt lat="48.68517" lon="2.03099">
        <ele>178</ele>
        <time>2020-05-21T09:45:05Z</time>
      </trkpt>
      <trkpt lat="48.68536" lon="2.03094">
        <ele>178</ele>
        <time>2020-05-21T09:45:19Z</time>
      </trkpt>
      <trkpt lat="48.68555" lon="2.03091">
        <ele>178</ele>
        <time>2020-05-21T09:45:32Z</time>
      </trkpt>
      <trkpt lat="48.68573" lon="2.03088">
        <ele>178</ele>
        <time>2020-05-21T09:45:44Z</time>
      </trkpt>
      <trkpt lat="48.68592" lon="2.03085">
        <ele>178</ele>
        <time>2020-05-21T09:45:56Z</time>
      </trkpt>
      <trkpt lat="48.6861" lon="2.03081">
        <ele>179</ele>
        <time>2020-05-21T09:46:09Z</time>
      </trkpt>
      <trkpt lat="48.68627" lon="2.03077">
        <ele>179</ele>
        <time>2020-05-21T09:46:21Z</time>
      </trkpt>
      <trkpt lat="48.68645" lon="2.03072">
        <ele>179</ele>
        <time>2020-05-21T09:46:33Z</time>
      </trkpt>
      <trkpt lat="48.68664" lon="2.03075">
        <ele>180</ele>
        <time>2020-05-21T09:46:46Z</time>
      </trkpt>
      <trkpt lat="48.68682" lon="2.03083">
        <ele>179</ele>
        <time>2020-05-21T09:46:59Z</time>
      </trkpt>
      <trkpt lat="48.68701" lon="2.03088">
        <ele>178</ele>
        <time>2020-05-21T09:47:11Z</time>
      </trkpt>
      <trkpt lat="48.68718" lon="2.03099">
        <ele>178</ele>
        <time>2020-05-21T09:47:25Z</time>
      </trkpt>
      <trkpt lat="48.68737" lon="2.03103">
        <ele>178</ele>
        <time>2020-05-21T09:47:35Z</time>
      </trkpt>
      <trkpt lat="48.68755" lon="2.03105">
        <ele>177</ele>
        <time>2020-05-21T09:47:47Z</time>
      </trkpt>
      <trkpt lat="48.68773" lon="2.03108">
        <ele>177</ele>
        <time>2020-05-21T09:48:02Z</time>
      </trkpt>
      <trkpt lat="48.68792" lon="2.03114">
        <ele>176</ele>
        <time>2020-05-21T09:48:16Z</time>
      </trkpt>
      <trkpt lat="48.6881" lon="2.03114">
        <ele>176</ele>
        <time>2020-05-21T09:48:27Z</time>
      </trkpt>
      <trkpt lat="48.68829" lon="2.03117">
        <ele>176</ele>
        <time>2020-05-21T09:48:38Z</time>
      </trkpt>
      <trkpt lat="48.68848" lon="2.03122">
        <ele>175</ele>
        <time>2020-05-21T09:48:51Z</time>
      </trkpt>
      <trkpt lat="48.68867" lon="2.03123">
        <ele>175</ele>
        <time>2020-05-21T09:49:02Z</time>
      </trkpt>
      <trkpt lat="48.68885" lon="2.03127">
        <ele>175</ele>
        <time>2020-05-21T09:49:16Z</time>
      </trkpt>
      <trkpt lat="48.68899" lon="2.03145">
        <ele>175</ele>
        <time>2020-05-21T09:49:34Z</time>
      </trkpt>
      <trkpt lat="48.68902" lon="2.03173">
        <ele>173</ele>
        <time>2020-05-21T09:49:48Z</time>
      </trkpt>
      <trkpt lat="48.68903" lon="2.03203">
        <ele>172</ele>
        <time>2020-05-21T09:50:02Z</time>
      </trkpt>
      <trkpt lat="48.68917" lon="2.03222">
        <ele>172</ele>
        <time>2020-05-21T09:50:18Z</time>
      </trkpt>
      <trkpt lat="48.68924" lon="2.03247">
        <ele>171</ele>
        <time>2020-05-21T09:50:29Z</time>
      </trkpt>
      <trkpt lat="48.68938" lon="2.03265">
        <ele>168</ele>
        <time>2020-05-21T09:50:40Z</time>
      </trkpt>
      <trkpt lat="48.68956" lon="2.03276">
        <ele>167</ele>
        <time>2020-05-21T09:50:52Z</time>
      </trkpt>
      <trkpt lat="48.68974" lon="2.03286">
        <ele>167</ele>
        <time>2020-05-21T09:51:03Z</time>
      </trkpt>
      <trkpt lat="48.68992" lon="2.03296">
        <ele>166</ele>
        <time>2020-05-21T09:51:16Z</time>
      </trkpt>
      <trkpt lat="48.6901" lon="2.03304">
        <ele>166</ele>
        <time>2020-05-21T09:51:27Z</time>
      </trkpt>
      <trkpt lat="48.69029" lon="2.03307">
        <ele>167</ele>
        <time>2020-05-21T09:51:40Z</time>
      </trkpt>
      <trkpt lat="48.69048" lon="2.03313">
        <ele>167</ele>
        <time>2020-05-21T09:51:52Z</time>
      </trkpt>
      <trkpt lat="48.69065" lon="2.03321">
        <ele>167</ele>
        <time>2020-05-21T09:52:04Z</time>
      </trkpt>
      <trkpt lat="48.69083" lon="2.0333">
        <ele>166</ele>
        <time>2020-05-21T09:52:16Z</time>
      </trkpt>
      <trkpt lat="48.691" lon="2.03342">
        <ele>164</ele>
        <time>2020-05-21T09:52:29Z</time>
      </trkpt>
      <trkpt lat="48.69118" lon="2.03348">
        <ele>164</ele>
        <time>2020-05-21T09:52:43Z</time>
      </trkpt>
      <trkpt lat="48.69121" lon="2.03376">
        <ele>163</ele>
        <time>2020-05-21T09:53:15Z</time>
      </trkpt>
      <trkpt lat="48.69117" lon="2.03404">
        <ele>162</ele>
        <time>2020-05-21T09:53:32Z</time>
      </trkpt>
      <trkpt lat="48.69123" lon="2.0343">
        <ele>161</ele>
        <time>2020-05-21T09:53:46Z</time>
      </trkpt>
      <trkpt lat="48.69134" lon="2.03452">
        <ele>160</ele>
        <time>2020-05-21T09:53:59Z</time>
      </trkpt>
      <trkpt lat="48.69146" lon="2.03473">
        <ele>160</ele>
        <time>2020-05-21T09:54:11Z</time>
      </trkpt>
      <trkpt lat="48.69161" lon="2.03492">
        <ele>161</ele>
        <time>2020-05-21T09:54:25Z</time>
      </trkpt>
      <trkpt lat="48.69178" lon="2.03504">
        <ele>161</ele>
        <time>2020-05-21T09:54:46Z</time>
      </trkpt>
      <trkpt lat="48.69194" lon="2.03518">
        <ele>160</ele>
        <time>2020-05-21T09:55:02Z</time>
      </trkpt>
      <trkpt lat="48.6921" lon="2.0353">
        <ele>160</ele>
        <time>2020-05-21T09:55:32Z</time>
      </trkpt>
      <trkpt lat="48.69229" lon="2.03536">
        <ele>160</ele>
        <time>2020-05-21T09:55:49Z</time>
      </trkpt>
      <trkpt lat="48.69246" lon="2.03549">
        <ele>160</ele>
        <time>2020-05-21T09:56:05Z</time>
      </trkpt>
      <trkpt lat="48.69264" lon="2.03554">
        <ele>158</ele>
        <time>2020-05-21T09:56:19Z</time>
      </trkpt>
      <trkpt lat="48.6928" lon="2.03565">
        <ele>158</ele>
        <time>2020-05-21T09:56:32Z</time>
      </trkpt>
      <trkpt lat="48.69296" lon="2.03579">
        <ele>157</ele>
        <time>2020-05-21T09:56:44Z</time>
      </trkpt>
      <trkpt lat="48.69313" lon="2.03591">
        <ele>158</ele>
        <time>2020-05-21T09:56:55Z</time>
      </trkpt>
      <trkpt lat="48.69329" lon="2.03605">
        <ele>158</ele>
        <time>2020-05-21T09:57:10Z</time>
      </trkpt>
      <trkpt lat="48.69347" lon="2.03616">
        <ele>158</ele>
        <time>2020-05-21T09:57:23Z</time>
      </trkpt>
      <trkpt lat="48.69364" lon="2.03629">
        <ele>159</ele>
        <time>2020-05-21T09:57:48Z</time>
      </trkpt>
      <trkpt lat="48.69381" lon="2.0364">
        <ele>159</ele>
        <time>2020-05-21T09:58:01Z</time>
      </trkpt>
      <trkpt lat="48.69399" lon="2.03648">
        <ele>160</ele>
        <time>2020-05-21T09:58:15Z</time>
      </trkpt>
      <trkpt lat="48.69415" lon="2.03664">
        <ele>162</ele>
        <time>2020-05-21T09:58:32Z</time>
      </trkpt>
      <trkpt lat="48.69432" lon="2.03673">
        <ele>163</ele>
        <time>2020-05-21T09:58:48Z</time>
      </trkpt>
      <trkpt lat="48.69446" lon="2.03691">
        <ele>164</ele>
        <time>2020-05-21T09:59:08Z</time>
      </trkpt>
    </trkseg>
  </trk>
</gpx>